createdAt,value
2022-08-02T00:01:13.511Z,19.40
2022-08-02T00:08:16.554Z,19.30
2022-08-02T00:15:18.495Z,19.20
2022-08-02T00:21:21.031Z,19.20
2022-08-02T00:28:19.491Z,19.20
2022-08-02T00:35:30.379Z,19.20
2022-08-02T00:42:32.172Z,19.10
2022-08-02T00:49:35.205Z,19.10
2022-08-02T00:56:38.034Z,19.10
2022-08-02T01:03:26.568Z,19.10
2022-08-02T01:10:11.337Z,19.10
2022-08-02T01:17:14.438Z,19.10
2022-08-02T01:24:05.943Z,19.00
2022-08-02T01:31:01.900Z,19.00
2022-08-02T01:38:10.520Z,19.00
2022-08-02T01:45:13.200Z,18.98
2022-08-02T01:52:14.004Z,19.00
2022-08-02T01:59:17.301Z,19.04
2022-08-02T02:06:20.077Z,19.08
2022-08-02T02:12:28.335Z,19.10
2022-08-02T02:19:31.208Z,19.10
2022-08-02T02:26:20.822Z,19.00
2022-08-02T02:33:18.821Z,19.10
2022-08-02T02:40:21.652Z,19.10
2022-08-02T02:47:40.417Z,19.10
2022-08-02T02:54:35.546Z,19.10
2022-08-02T03:01:56.910Z,19.10
2022-08-02T03:09:00.188Z,19.00
2022-08-02T03:16:02.592Z,19.00
2022-08-02T03:23:05.657Z,19.00
2022-08-02T03:30:10.765Z,19.00
2022-08-02T03:37:14.083Z,19.00
2022-08-02T03:44:01.228Z,18.90
2022-08-02T03:51:04.312Z,18.92
2022-08-02T03:57:55.593Z,18.90
2022-08-02T04:04:58.637Z,18.90
2022-08-02T04:12:01.437Z,19.00
2022-08-02T04:19:15.132Z,19.00
2022-08-02T04:26:28.338Z,19.10
2022-08-02T04:32:55.037Z,19.16
2022-08-02T04:39:57.883Z,19.20
2022-08-02T04:46:41.982Z,19.20
2022-08-02T04:53:44.942Z,19.30
2022-08-02T05:00:48.326Z,19.30
2022-08-02T05:07:51.536Z,19.38
2022-08-02T05:14:44.808Z,19.40
2022-08-02T05:21:11.572Z,19.40
2022-08-02T05:27:47.908Z,19.40
2022-08-02T05:34:51.029Z,19.40
2022-08-02T05:41:53.162Z,19.40
2022-08-02T05:48:45.741Z,19.30
2022-08-02T05:55:48.875Z,19.40
2022-08-02T06:02:38.604Z,19.42
2022-08-02T06:09:50.395Z,19.50
2022-08-02T06:16:44.478Z,19.50
2022-08-02T06:23:57.700Z,19.50
2022-08-02T06:30:24.880Z,19.50
2022-08-02T06:36:57.278Z,19.50
2022-08-02T06:43:08.887Z,19.50
2022-08-02T06:49:20.452Z,19.52
2022-08-02T06:55:05.315Z,19.60
2022-08-02T07:01:11.356Z,19.52
2022-08-02T07:06:57.147Z,19.50
2022-08-02T07:12:36.104Z,19.52
2022-08-02T07:18:01.885Z,19.60
2022-08-02T07:23:44.059Z,19.60
2022-08-02T07:29:15.238Z,19.70
2022-08-02T07:34:41.787Z,19.90
2022-08-02T07:41:29.928Z,20.10
2022-08-02T07:48:33.190Z,20.50
2022-08-02T07:55:40.404Z,20.70
2022-08-02T08:02:28.975Z,20.90
2022-08-02T08:08:54.936Z,21.20
2022-08-02T08:15:58.240Z,21.40
2022-08-02T08:22:44.225Z,21.60
2022-08-02T08:29:11.261Z,21.70
2022-08-02T08:35:47.860Z,21.80
2022-08-02T08:42:50.634Z,22.00
2022-08-02T08:49:23.343Z,22.10
2022-08-02T08:55:47.990Z,22.30
2022-08-02T09:02:28.109Z,22.38
2022-08-02T09:08:54.953Z,22.40
2022-08-02T09:14:59.732Z,22.50
2022-08-02T09:22:03.562Z,22.50
2022-08-02T09:28:12.866Z,22.50
2022-08-02T09:34:54.974Z,22.50
2022-08-02T09:41:10.001Z,22.72
2022-08-02T09:48:14.442Z,23.14
2022-08-02T09:54:50.035Z,23.30
2022-08-02T10:01:37.201Z,23.50
2022-08-02T10:07:53.029Z,23.90
2022-08-02T10:14:24.217Z,24.10
2022-08-02T10:20:40.932Z,24.42
2022-08-02T10:27:20.822Z,24.40
2022-08-02T10:33:35.659Z,24.40
2022-08-02T10:39:58.399Z,24.58
2022-08-02T10:45:51.032Z,24.56
2022-08-02T10:51:50.764Z,24.76
2022-08-02T10:58:34.510Z,24.90
2022-08-02T11:05:08.001Z,24.60
2022-08-02T11:11:54.319Z,24.40
2022-08-02T11:18:54.096Z,24.40
2022-08-02T11:26:03.632Z,24.70
2022-08-02T11:32:31.130Z,24.70
2022-08-02T11:38:29.390Z,24.90
2022-08-02T11:45:22.845Z,25.10
2022-08-02T11:52:32.677Z,25.34
2022-08-02T11:59:41.718Z,25.30
2022-08-02T12:06:16.421Z,25.10
2022-08-02T12:12:11.334Z,25.10
2022-08-02T12:18:49.283Z,25.30
2022-08-02T12:25:08.904Z,24.70
2022-08-02T12:32:14.059Z,24.60
2022-08-02T12:38:13.858Z,24.50
2022-08-02T12:44:54.665Z,24.50
2022-08-02T12:50:46.990Z,24.92
2022-08-02T12:56:44.893Z,25.20
2022-08-02T13:02:21.819Z,25.20
2022-08-02T13:07:49.810Z,25.50
2022-08-02T13:13:24.923Z,25.70
2022-08-02T13:18:47.197Z,25.80
2022-08-02T13:24:33.201Z,25.80
2022-08-02T13:30:07.496Z,25.80
2022-08-02T13:35:50.107Z,25.84
2022-08-02T13:41:14.925Z,25.80
2022-08-02T13:47:11.424Z,25.90
2022-08-02T13:52:45.149Z,26.10
2022-08-02T13:58:16.708Z,26.12
2022-08-02T14:04:46.997Z,26.30
2022-08-02T14:11:49.898Z,26.50
2022-08-02T14:17:48.923Z,26.60
2022-08-02T14:23:49.020Z,26.50
2022-08-02T14:29:09.240Z,26.56
2022-08-02T14:34:31.135Z,26.34
2022-08-02T14:40:00.133Z,26.40
2022-08-02T14:45:41.503Z,26.30
2022-08-02T14:51:20.163Z,26.30
2022-08-02T14:56:44.760Z,26.40
2022-08-02T15:02:14.035Z,26.30
2022-08-02T15:07:41.884Z,26.30
2022-08-02T15:13:05.687Z,26.20
2022-08-02T15:18:32.833Z,26.10
2022-08-02T15:23:58.173Z,26.08
2022-08-02T15:29:20.778Z,26.00
2022-08-02T15:34:42.938Z,26.00
2022-08-02T15:40:05.825Z,26.00
2022-08-02T15:45:27.977Z,25.90
2022-08-02T15:50:50.000Z,25.90
2022-08-02T15:56:13.136Z,25.80
2022-08-02T16:01:46.620Z,25.72
2022-08-02T16:07:12.748Z,25.70
2022-08-02T16:12:43.603Z,25.50
2022-08-02T16:18:11.359Z,25.34
2022-08-02T16:23:58.637Z,25.20
2022-08-02T16:29:25.555Z,25.10
2022-08-02T16:35:07.475Z,25.10
2022-08-02T16:40:31.060Z,25.00
2022-08-02T16:45:53.221Z,24.90
2022-08-02T16:51:15.828Z,24.80
2022-08-02T16:56:38.965Z,24.80
2022-08-02T17:02:18.100Z,24.70
2022-08-02T17:08:18.292Z,24.70
2022-08-02T17:13:42.956Z,24.56
2022-08-02T17:19:06.784Z,24.46
2022-08-02T17:24:32.173Z,24.40
2022-08-02T17:29:57.165Z,24.30
2022-08-02T17:35:19.595Z,24.20
2022-08-02T17:41:05.359Z,24.10
2022-08-02T17:46:40.185Z,23.92
2022-08-02T17:52:49.369Z,23.80
2022-08-02T17:58:12.520Z,23.70
2022-08-02T18:03:39.053Z,23.50
2022-08-02T18:09:06.507Z,23.30
2022-08-02T18:14:31.849Z,23.00
2022-08-02T18:20:04.496Z,22.90
2022-08-02T18:25:46.647Z,22.70
2022-08-02T18:31:20.230Z,22.56
2022-08-02T18:36:49.047Z,22.30
2022-08-02T18:42:31.341Z,22.20
2022-08-02T18:47:54.174Z,22.02
2022-08-02T18:53:39.112Z,21.90
2022-08-02T18:58:59.203Z,21.70
2022-08-02T19:04:27.853Z,21.60
2022-08-02T19:10:08.454Z,21.50
2022-08-02T19:15:35.511Z,21.40
2022-08-02T19:21:05.570Z,21.26
2022-08-02T19:26:39.230Z,21.10
2022-08-02T19:32:40.218Z,21.00
2022-08-02T19:38:12.267Z,20.80
2022-08-02T19:44:24.878Z,20.70
2022-08-02T19:49:40.430Z,20.60
2022-08-02T19:56:00.656Z,20.50
2022-08-02T20:00:51.232Z,20.30
2022-08-02T20:06:29.357Z,20.20
2022-08-02T20:11:55.305Z,20.10
2022-08-02T20:17:20.641Z,20.00
2022-08-02T20:23:01.684Z,19.88
2022-08-02T20:28:46.808Z,19.78
2022-08-02T20:34:11.748Z,19.70
2022-08-02T20:39:42.987Z,19.70
2022-08-02T20:45:07.279Z,19.60
2022-08-02T20:50:49.204Z,19.50
2022-08-02T20:57:19.525Z,19.40
2022-08-02T21:03:22.090Z,19.40
2022-08-02T21:08:46.118Z,19.30
2022-08-02T21:14:14.481Z,19.40
2022-08-02T21:19:59.641Z,19.40
2022-08-02T21:25:42.341Z,19.30
2022-08-02T21:31:15.837Z,19.20
2022-08-02T21:36:38.395Z,19.10
2022-08-02T21:42:11.126Z,19.00
2022-08-02T21:47:47.342Z,19.00
2022-08-02T21:53:13.296Z,19.00
2022-08-02T22:05:15.796Z,18.70
2022-08-02T22:11:04.781Z,18.60
2022-08-02T22:18:00.465Z,18.60
2022-08-02T22:24:52.479Z,18.50
2022-08-02T22:31:43.690Z,18.40
2022-08-02T22:38:44.230Z,18.48
2022-08-02T22:45:48.383Z,18.50
2022-08-02T22:52:33.975Z,18.46
2022-08-02T23:06:00.165Z,18.50
2022-08-02T23:13:03.254Z,18.50
2022-08-02T23:19:15.647Z,18.50
2022-08-02T23:26:18.287Z,18.50
2022-08-02T23:33:21.635Z,18.40
2022-08-02T23:40:39.486Z,18.34
2022-08-02T23:47:43.393Z,18.30
2022-08-02T23:54:26.199Z,18.10
